sensor_id;sensor_type;location;lat;lon;timestamp;pressure;altitude;pressure_sealevel;temperature;humidity
58243;BME280;50118;53.232;8.252;2023-03-14T00:01:58;98612.78;;;8.64;100.00
58243;BME280;50118;53.232;8.252;2023-03-14T00:04:23;98614.72;;;8.55;100.00
58243;BME280;50118;53.232;8.252;2023-03-14T00:06:49;98604.56;;;8.58;100.00
58243;BME280;50118;53.232;8.252;2023-03-14T00:09:15;98601.28;;;8.56;100.00
58243;BME280;50118;53.232;8.252;2023-03-14T00:11:41;98600.88;;;8.59;100.00
58243;BME280;50118;53.232;8.252;2023-03-14T00:14:06;98594.56;;;8.60;100.00
58243;BME280;50118;53.232;8.252;2023-03-14T00:16:32;98596.59;;;8.58;100.00
58243;BME280;50118;53.232;8.252;2023-03-14T00:19:00;98591.47;;;8.57;100.00
58243;BME280;50118;53.232;8.252;2023-03-14T00:21:26;98592.56;;;8.63;100.00
58243;BME280;50118;53.232;8.252;2023-03-14T00:23:52;98589.16;;;8.69;100.00
58243;BME280;50118;53.232;8.252;2023-03-14T00:26:19;98589.53;;;8.66;100.00
58243;BME280;50118;53.232;8.252;2023-03-14T00:28:45;98591.03;;;8.53;100.00
58243;BME280;50118;53.232;8.252;2023-03-14T00:31:13;98584.59;;;8.63;100.00
58243;BME280;50118;53.232;8.252;2023-03-14T00:33:39;98584.75;;;8.76;100.00
58243;BME280;50118;53.232;8.252;2023-03-14T00:36:10;98593.81;;;8.82;100.00
58243;BME280;50118;53.232;8.252;2023-03-14T00:38:37;98607.41;;;8.93;100.00
58243;BME280;50118;53.232;8.252;2023-03-14T00:41:07;98601.38;;;9.00;100.00
58243;BME280;50118;53.232;8.252;2023-03-14T00:43:33;98592.00;;;9.04;100.00
58243;BME280;50118;53.232;8.252;2023-03-14T00:45:59;98599.75;;;9.20;100.00
58243;BME280;50118;53.232;8.252;2023-03-14T00:48:24;98597.47;;;9.17;100.00
58243;BME280;50118;53.232;8.252;2023-03-14T00:50:50;98599.00;;;9.26;100.00
58243;BME280;50118;53.232;8.252;2023-03-14T00:53:16;98594.06;;;9.23;100.00
58243;BME280;50118;53.232;8.252;2023-03-14T00:55:42;98589.50;;;9.17;100.00
58243;BME280;50118;53.232;8.252;2023-03-14T00:58:09;98586.09;;;9.23;100.00
58243;BME280;50118;53.232;8.252;2023-03-14T01:00:35;98577.53;;;9.28;100.00
58243;BME280;50118;53.232;8.252;2023-03-14T01:03:01;98578.25;;;9.37;100.00
58243;BME280;50118;53.232;8.252;2023-03-14T01:05:27;98567.81;;;9.35;100.00
58243;BME280;50118;53.232;8.252;2023-03-14T01:07:53;98568.94;;;9.26;100.00
58243;BME280;50118;53.232;8.252;2023-03-14T01:10:18;98571.22;;;9.29;100.00
58243;BME280;50118;53.232;8.252;2023-03-14T01:12:44;98568.63;;;9.35;100.00
58243;BME280;50118;53.232;8.252;2023-03-14T01:15:10;98556.53;;;9.33;100.00
58243;BME280;50118;53.232;8.252;2023-03-14T01:17:35;98554.66;;;9.48;100.00
58243;BME280;50118;53.232;8.252;2023-03-14T01:20:03;98552.81;;;9.49;100.00
58243;BME280;50118;53.232;8.252;2023-03-14T01:22:29;98558.38;;;9.54;100.00
58243;BME280;50118;53.232;8.252;2023-03-14T01:24:55;98550.31;;;9.69;100.00
58243;BME280;50118;53.232;8.252;2023-03-14T01:27:21;98537.59;;;9.64;100.00
58243;BME280;50118;53.232;8.252;2023-03-14T01:29:47;98535.38;;;9.68;100.00
58243;BME280;50118;53.232;8.252;2023-03-14T01:32:13;98525.56;;;9.68;100.00
58243;BME280;50118;53.232;8.252;2023-03-14T01:34:38;98517.38;;;9.70;100.00
58243;BME280;50118;53.232;8.252;2023-03-14T01:37:04;98514.00;;;9.83;100.00
58243;BME280;50118;53.232;8.252;2023-03-14T01:39:30;98518.22;;;9.70;100.00
58243;BME280;50118;53.232;8.252;2023-03-14T01:41:56;98531.00;;;9.60;100.00
58243;BME280;50118;53.232;8.252;2023-03-14T01:44:21;98522.28;;;9.66;100.00
58243;BME280;50118;53.232;8.252;2023-03-14T01:46:46;98515.56;;;9.70;100.00
58243;BME280;50118;53.232;8.252;2023-03-14T01:49:38;98513.25;;;9.61;100.00
58243;BME280;50118;53.232;8.252;2023-03-14T01:52:16;98515.06;;;9.60;100.00
58243;BME280;50118;53.232;8.252;2023-03-14T01:54:55;98500.97;;;9.60;100.00
58243;BME280;50118;53.232;8.252;2023-03-14T01:57:44;98485.06;;;9.66;100.00
58243;BME280;50118;53.232;8.252;2023-03-14T02:00:12;98479.88;;;9.58;100.00
58243;BME280;50118;53.232;8.252;2023-03-14T02:02:50;98478.50;;;9.62;100.00
58243;BME280;50118;53.232;8.252;2023-03-14T02:05:22;98470.16;;;9.65;100.00
58243;BME280;50118;53.232;8.252;2023-03-14T02:07:52;98464.59;;;9.67;100.00
58243;BME280;50118;53.232;8.252;2023-03-14T02:10:20;98455.81;;;9.66;100.00
58243;BME280;50118;53.232;8.252;2023-03-14T02:12:48;98457.22;;;9.62;100.00
58243;BME280;50118;53.232;8.252;2023-03-14T02:15:15;98470.72;;;9.61;100.00
58243;BME280;50118;53.232;8.252;2023-03-14T02:17:44;98469.91;;;9.67;100.00
58243;BME280;50118;53.232;8.252;2023-03-14T02:22:46;98472.63;;;9.73;100.00
58243;BME280;50118;53.232;8.252;2023-03-14T02:27:42;98471.66;;;9.81;100.00
58243;BME280;50118;53.232;8.252;2023-03-14T02:30:11;98466.38;;;9.88;100.00
58243;BME280;50118;53.232;8.252;2023-03-14T02:32:39;98474.75;;;9.85;100.00
58243;BME280;50118;53.232;8.252;2023-03-14T02:35:09;98492.59;;;9.91;100.00
58243;BME280;50118;53.232;8.252;2023-03-14T02:37:47;98526.50;;;9.89;100.00
58243;BME280;50118;53.232;8.252;2023-03-14T02:40:14;98546.94;;;9.60;100.00
58243;BME280;50118;53.232;8.252;2023-03-14T02:42:39;98534.09;;;9.35;100.00
58243;BME280;50118;53.232;8.252;2023-03-14T02:47:34;98534.44;;;9.04;100.00
58243;BME280;50118;53.232;8.252;2023-03-14T02:50:06;98530.16;;;8.88;100.00
58243;BME280;50118;53.232;8.252;2023-03-14T02:52:32;98528.53;;;8.87;100.00
58243;BME280;50118;53.232;8.252;2023-03-14T02:54:57;98526.44;;;8.83;100.00
58243;BME280;50118;53.232;8.252;2023-03-14T02:57:23;98526.28;;;8.69;100.00
58243;BME280;50118;53.232;8.252;2023-03-14T02:59:48;98510.91;;;8.65;100.00
58243;BME280;50118;53.232;8.252;2023-03-14T03:02:14;98520.38;;;8.52;100.00
58243;BME280;50118;53.232;8.252;2023-03-14T03:04:39;98510.38;;;8.54;100.00
58243;BME280;50118;53.232;8.252;2023-03-14T03:07:05;98516.19;;;8.43;100.00
58243;BME280;50118;53.232;8.252;2023-03-14T03:09:30;98508.75;;;8.38;100.00
58243;BME280;50118;53.232;8.252;2023-03-14T03:11:55;98513.06;;;8.39;100.00
58243;BME280;50118;53.232;8.252;2023-03-14T03:14:21;98512.50;;;8.44;100.00
58243;BME280;50118;53.232;8.252;2023-03-14T03:16:46;98514.50;;;8.42;100.00
58243;BME280;50118;53.232;8.252;2023-03-14T03:19:12;98511.97;;;8.34;100.00
58243;BME280;50118;53.232;8.252;2023-03-14T03:21:39;98500.53;;;8.18;100.00
58243;BME280;50118;53.232;8.252;2023-03-14T03:24:04;98505.56;;;8.13;100.00
58243;BME280;50118;53.232;8.252;2023-03-14T03:26:30;98492.41;;;8.05;100.00
58243;BME280;50118;53.232;8.252;2023-03-14T03:28:55;98483.81;;;8.03;100.00
58243;BME280;50118;53.232;8.252;2023-03-14T03:31:20;98472.69;;;7.93;100.00
58243;BME280;50118;53.232;8.252;2023-03-14T03:33:46;98477.06;;;7.85;100.00
58243;BME280;50118;53.232;8.252;2023-03-14T03:36:11;98479.38;;;7.89;100.00
58243;BME280;50118;53.232;8.252;2023-03-14T03:38:37;98476.81;;;7.80;100.00
58243;BME280;50118;53.232;8.252;2023-03-14T03:41:06;98477.44;;;7.82;100.00
58243;BME280;50118;53.232;8.252;2023-03-14T03:43:32;98473.78;;;7.83;100.00
58243;BME280;50118;53.232;8.252;2023-03-14T03:45:57;98462.78;;;7.86;100.00
58243;BME280;50118;53.232;8.252;2023-03-14T03:48:23;98464.34;;;7.81;100.00
58243;BME280;50118;53.232;8.252;2023-03-14T03:50:48;98478.16;;;7.91;100.00
58243;BME280;50118;53.232;8.252;2023-03-14T03:53:14;98472.59;;;7.86;100.00
58243;BME280;50118;53.232;8.252;2023-03-14T03:55:42;98465.56;;;7.78;100.00
58243;BME280;50118;53.232;8.252;2023-03-14T03:58:08;98462.63;;;7.73;100.00
58243;BME280;50118;53.232;8.252;2023-03-14T04:00:33;98467.28;;;7.71;100.00
58243;BME280;50118;53.232;8.252;2023-03-14T04:02:59;98468.75;;;7.74;100.00
58243;BME280;50118;53.232;8.252;2023-03-14T04:05:25;98468.22;;;7.78;100.00
58243;BME280;50118;53.232;8.252;2023-03-14T04:07:51;98470.13;;;7.70;100.00
58243;BME280;50118;53.232;8.252;2023-03-14T04:10:16;98459.44;;;7.63;100.00
58243;BME280;50118;53.232;8.252;2023-03-14T04:12:42;98465.19;;;7.52;100.00
58243;BME280;50118;53.232;8.252;2023-03-14T04:15:07;98456.22;;;7.53;100.00
58243;BME280;50118;53.232;8.252;2023-03-14T04:17:33;98470.13;;;7.55;100.00
58243;BME280;50118;53.232;8.252;2023-03-14T04:20:00;98468.09;;;7.57;100.00
58243;BME280;50118;53.232;8.252;2023-03-14T04:22:25;98456.97;;;7.61;100.00
58243;BME280;50118;53.232;8.252;2023-03-14T04:24:50;98457.34;;;7.73;100.00
58243;BME280;50118;53.232;8.252;2023-03-14T04:27:16;98456.22;;;7.82;100.00
58243;BME280;50118;53.232;8.252;2023-03-14T04:29:42;98458.34;;;7.87;100.00
58243;BME280;50118;53.232;8.252;2023-03-14T04:32:08;98464.28;;;7.89;100.00
58243;BME280;50118;53.232;8.252;2023-03-14T04:34:33;98460.16;;;8.01;100.00
58243;BME280;50118;53.232;8.252;2023-03-14T04:36:58;98466.28;;;8.02;100.00
58243;BME280;50118;53.232;8.252;2023-03-14T04:39:24;98457.94;;;8.05;100.00
58243;BME280;50118;53.232;8.252;2023-03-14T04:41:49;98458.22;;;8.10;100.00
58243;BME280;50118;53.232;8.252;2023-03-14T04:44:15;98461.53;;;8.12;100.00
58243;BME280;50118;53.232;8.252;2023-03-14T04:46:40;98459.66;;;8.28;100.00
58243;BME280;50118;53.232;8.252;2023-03-14T04:49:05;98453.59;;;8.34;100.00
58243;BME280;50118;53.232;8.252;2023-03-14T04:51:31;98465.59;;;8.30;100.00
58243;BME280;50118;53.232;8.252;2023-03-14T04:53:56;98463.56;;;8.32;100.00
58243;BME280;50118;53.232;8.252;2023-03-14T04:56:22;98459.41;;;8.22;100.00
58243;BME280;50118;53.232;8.252;2023-03-14T04:58:47;98449.06;;;8.28;100.00
58243;BME280;50118;53.232;8.252;2023-03-14T05:01:13;98454.53;;;8.26;100.00
58243;BME280;50118;53.232;8.252;2023-03-14T05:03:38;98451.91;;;8.26;100.00
58243;BME280;50118;53.232;8.252;2023-03-14T05:06:05;98447.84;;;8.30;100.00
58243;BME280;50118;53.232;8.252;2023-03-14T05:08:30;98447.41;;;8.27;100.00
58243;BME280;50118;53.232;8.252;2023-03-14T05:10:57;98458.63;;;8.29;100.00
58243;BME280;50118;53.232;8.252;2023-03-14T05:13:23;98437.69;;;8.34;100.00
58243;BME280;50118;53.232;8.252;2023-03-14T05:15:49;98440.69;;;8.31;100.00
58243;BME280;50118;53.232;8.252;2023-03-14T05:18:16;98442.09;;;8.27;100.00
58243;BME280;50118;53.232;8.252;2023-03-14T05:20:41;98433.41;;;8.33;100.00
58243;BME280;50118;53.232;8.252;2023-03-14T05:23:09;98439.72;;;8.32;100.00
58243;BME280;50118;53.232;8.252;2023-03-14T05:25:34;98430.09;;;8.31;100.00
58243;BME280;50118;53.232;8.252;2023-03-14T05:27:59;98435.66;;;8.36;100.00
58243;BME280;50118;53.232;8.252;2023-03-14T05:30:25;98427.06;;;8.34;100.00
58243;BME280;50118;53.232;8.252;2023-03-14T05:32:50;98437.06;;;8.32;100.00
58243;BME280;50118;53.232;8.252;2023-03-14T05:35:16;98423.78;;;8.32;100.00
58243;BME280;50118;53.232;8.252;2023-03-14T05:37:42;98430.50;;;8.28;100.00
58243;BME280;50118;53.232;8.252;2023-03-14T05:40:07;98427.44;;;8.31;100.00
58243;BME280;50118;53.232;8.252;2023-03-14T05:42:34;98421.94;;;8.32;100.00
58243;BME280;50118;53.232;8.252;2023-03-14T05:44:59;98427.06;;;8.34;100.00
58243;BME280;50118;53.232;8.252;2023-03-14T05:47:25;98438.13;;;8.37;100.00
58243;BME280;50118;53.232;8.252;2023-03-14T05:49:50;98438.31;;;8.36;100.00
58243;BME280;50118;53.232;8.252;2023-03-14T05:52:16;98440.59;;;8.39;100.00
58243;BME280;50118;53.232;8.252;2023-03-14T05:54:41;98430.91;;;8.46;100.00
58243;BME280;50118;53.232;8.252;2023-03-14T05:57:07;98427.63;;;8.44;100.00
58243;BME280;50118;53.232;8.252;2023-03-14T05:59:32;98433.25;;;8.41;100.00
58243;BME280;50118;53.232;8.252;2023-03-14T06:01:57;98429.00;;;8.40;100.00
58243;BME280;50118;53.232;8.252;2023-03-14T06:04:24;98438.56;;;8.41;100.00
58243;BME280;50118;53.232;8.252;2023-03-14T06:06:49;98431.13;;;8.30;100.00
58243;BME280;50118;53.232;8.252;2023-03-14T06:09:15;98449.97;;;8.20;100.00
58243;BME280;50118;53.232;8.252;2023-03-14T06:11:40;98438.66;;;8.11;100.00
58243;BME280;50118;53.232;8.252;2023-03-14T06:14:05;98438.38;;;8.06;100.00
58243;BME280;50118;53.232;8.252;2023-03-14T06:16:31;98440.69;;;8.09;100.00
58243;BME280;50118;53.232;8.252;2023-03-14T06:18:57;98437.41;;;8.07;100.00
58243;BME280;50118;53.232;8.252;2023-03-14T06:21:22;98426.78;;;8.07;100.00
58243;BME280;50118;53.232;8.252;2023-03-14T06:23:48;98435.84;;;7.98;100.00
58243;BME280;50118;53.232;8.252;2023-03-14T06:26:13;98430.53;;;7.98;100.00
58243;BME280;50118;53.232;8.252;2023-03-14T06:28:38;98430.81;;;8.03;100.00
58243;BME280;50118;53.232;8.252;2023-03-14T06:31:04;98423.09;;;8.08;100.00
58243;BME280;50118;53.232;8.252;2023-03-14T06:33:30;98425.13;;;8.06;100.00
58243;BME280;50118;53.232;8.252;2023-03-14T06:35:55;98429.19;;;8.02;100.00
58243;BME280;50118;53.232;8.252;2023-03-14T06:38:21;98434.75;;;8.07;100.00
58243;BME280;50118;53.232;8.252;2023-03-14T06:40:46;98423.56;;;8.12;100.00
58243;BME280;50118;53.232;8.252;2023-03-14T06:43:11;98416.72;;;8.17;100.00
58243;BME280;50118;53.232;8.252;2023-03-14T06:45:37;98424.25;;;8.20;100.00
58243;BME280;50118;53.232;8.252;2023-03-14T06:48:02;98438.53;;;8.34;100.00
58243;BME280;50118;53.232;8.252;2023-03-14T06:50:28;98414.81;;;8.69;100.00
58243;BME280;50118;53.232;8.252;2023-03-14T06:52:53;98408.63;;;9.12;100.00
58243;BME280;50118;53.232;8.252;2023-03-14T06:55:19;98428.25;;;9.11;100.00
58243;BME280;50118;53.232;8.252;2023-03-14T06:57:46;98428.44;;;9.38;100.00
58243;BME280;50118;53.232;8.252;2023-03-14T07:00:12;98439.41;;;9.56;100.00
58243;BME280;50118;53.232;8.252;2023-03-14T07:02:38;98434.34;;;9.68;100.00
58243;BME280;50118;53.232;8.252;2023-03-14T07:05:08;98439.53;;;9.48;100.00
58243;BME280;50118;53.232;8.252;2023-03-14T07:07:35;98441.97;;;9.43;100.00
58243;BME280;50118;53.232;8.252;2023-03-14T07:10:00;98451.41;;;9.45;100.00
58243;BME280;50118;53.232;8.252;2023-03-14T07:12:26;98445.38;;;9.08;100.00
58243;BME280;50118;53.232;8.252;2023-03-14T07:14:51;98443.19;;;8.90;100.00
58243;BME280;50118;53.232;8.252;2023-03-14T07:17:17;98450.38;;;8.75;100.00
58243;BME280;50118;53.232;8.252;2023-03-14T07:19:42;98442.56;;;8.67;100.00
58243;BME280;50118;53.232;8.252;2023-03-14T07:22:08;98458.44;;;8.60;100.00
58243;BME280;50118;53.232;8.252;2023-03-14T07:24:33;98447.09;;;8.51;100.00
58243;BME280;50118;53.232;8.252;2023-03-14T07:26:58;98456.25;;;8.49;100.00
58243;BME280;50118;53.232;8.252;2023-03-14T07:29:24;98450.84;;;8.57;100.00
58243;BME280;50118;53.232;8.252;2023-03-14T07:31:49;98455.63;;;8.47;100.00
58243;BME280;50118;53.232;8.252;2023-03-14T07:34:15;98456.16;;;8.42;100.00
58243;BME280;50118;53.232;8.252;2023-03-14T07:36:40;98447.28;;;8.35;100.00
58243;BME280;50118;53.232;8.252;2023-03-14T07:39:06;98453.34;;;8.29;100.00
58243;BME280;50118;53.232;8.252;2023-03-14T07:41:32;98452.34;;;8.30;100.00
58243;BME280;50118;53.232;8.252;2023-03-14T07:43:58;98471.16;;;8.35;100.00
58243;BME280;50118;53.232;8.252;2023-03-14T07:46:23;98464.75;;;8.44;100.00
58243;BME280;50118;53.232;8.252;2023-03-14T07:48:48;98475.38;;;8.44;100.00
58243;BME280;50118;53.232;8.252;2023-03-14T07:51:14;98473.47;;;8.38;100.00
58243;BME280;50118;53.232;8.252;2023-03-14T07:53:39;98474.19;;;8.32;100.00
58243;BME280;50118;53.232;8.252;2023-03-14T07:56:05;98486.06;;;8.36;100.00
58243;BME280;50118;53.232;8.252;2023-03-14T07:58:30;98488.81;;;8.43;100.00
58243;BME280;50118;53.232;8.252;2023-03-14T08:00:58;98482.69;;;8.42;100.00
58243;BME280;50118;53.232;8.252;2023-03-14T08:03:23;98479.50;;;8.47;100.00
58243;BME280;50118;53.232;8.252;2023-03-14T08:05:50;98487.97;;;8.42;100.00
58243;BME280;50118;53.232;8.252;2023-03-14T08:08:16;98486.63;;;8.46;100.00
58243;BME280;50118;53.232;8.252;2023-03-14T08:10:42;98489.28;;;8.46;100.00
58243;BME280;50118;53.232;8.252;2023-03-14T08:13:09;98502.53;;;8.46;100.00
58243;BME280;50118;53.232;8.252;2023-03-14T08:15:34;98506.84;;;8.47;100.00
58243;BME280;50118;53.232;8.252;2023-03-14T08:18:00;98506.13;;;8.53;100.00
58243;BME280;50118;53.232;8.252;2023-03-14T08:20:27;98524.66;;;8.38;100.00
58243;BME280;50118;53.232;8.252;2023-03-14T08:22:57;98546.75;;;8.09;100.00
58243;BME280;50118;53.232;8.252;2023-03-14T08:25:23;98536.59;;;8.13;100.00
58243;BME280;50118;53.232;8.252;2023-03-14T08:27:49;98558.50;;;7.77;100.00
58243;BME280;50118;53.232;8.252;2023-03-14T08:30:16;98651.50;;;6.33;100.00
58243;BME280;50118;53.232;8.252;2023-03-14T08:32:41;98660.78;;;5.80;100.00
58243;BME280;50118;53.232;8.252;2023-03-14T08:35:08;98671.63;;;5.28;100.00
58243;BME280;50118;53.232;8.252;2023-03-14T08:37:34;98687.97;;;4.89;100.00
58243;BME280;50118;53.232;8.252;2023-03-14T08:40:00;98699.41;;;4.63;100.00
58243;BME280;50118;53.232;8.252;2023-03-14T08:42:26;98711.84;;;4.44;100.00
58243;BME280;50118;53.232;8.252;2023-03-14T08:44:52;98708.47;;;4.08;100.00
58243;BME280;50118;53.232;8.252;2023-03-14T08:47:18;98731.84;;;3.85;100.00
58243;BME280;50118;53.232;8.252;2023-03-14T08:49:43;98730.63;;;3.61;100.00
58243;BME280;50118;53.232;8.252;2023-03-14T08:52:09;98703.09;;;3.38;100.00
58243;BME280;50118;53.232;8.252;2023-03-14T08:54:34;98752.59;;;3.24;100.00
58243;BME280;50118;53.232;8.252;2023-03-14T08:57:00;98765.56;;;3.08;100.00
58243;BME280;50118;53.232;8.252;2023-03-14T08:59:25;98787.13;;;2.74;100.00
58243;BME280;50118;53.232;8.252;2023-03-14T09:01:51;98795.50;;;2.50;100.00
58243;BME280;50118;53.232;8.252;2023-03-14T09:04:17;98813.91;;;2.30;100.00
58243;BME280;50118;53.232;8.252;2023-03-14T09:06:42;98831.88;;;2.05;100.00
58243;BME280;50118;53.232;8.252;2023-03-14T09:09:08;98838.22;;;1.83;100.00
58243;BME280;50118;53.232;8.252;2023-03-14T09:11:33;98844.56;;;1.71;100.00
58243;BME280;50118;53.232;8.252;2023-03-14T09:13:59;98848.56;;;1.65;100.00
58243;BME280;50118;53.232;8.252;2023-03-14T09:16:25;98860.81;;;1.55;100.00
58243;BME280;50118;53.232;8.252;2023-03-14T09:18:50;98861.34;;;1.49;100.00
58243;BME280;50118;53.232;8.252;2023-03-14T09:21:19;98882.50;;;1.57;100.00
58243;BME280;50118;53.232;8.252;2023-03-14T09:23:45;98892.03;;;1.58;100.00
58243;BME280;50118;53.232;8.252;2023-03-14T09:26:11;98898.69;;;1.62;100.00
58243;BME280;50118;53.232;8.252;2023-03-14T09:28:36;98896.38;;;1.69;100.00
58243;BME280;50118;53.232;8.252;2023-03-14T09:31:06;98912.94;;;1.70;100.00
58243;BME280;50118;53.232;8.252;2023-03-14T09:33:33;98921.38;;;1.73;100.00
58243;BME280;50118;53.232;8.252;2023-03-14T09:35:58;98926.09;;;1.79;100.00
58243;BME280;50118;53.232;8.252;2023-03-14T09:38:27;98934.41;;;1.84;100.00
58243;BME280;50118;53.232;8.252;2023-03-14T09:40:53;98949.34;;;1.84;100.00
58243;BME280;50118;53.232;8.252;2023-03-14T09:43:21;98946.03;;;1.92;100.00
58243;BME280;50118;53.232;8.252;2023-03-14T09:45:48;98958.50;;;2.09;100.00
58243;BME280;50118;53.232;8.252;2023-03-14T09:48:19;98973.53;;;1.97;100.00
58243;BME280;50118;53.232;8.252;2023-03-14T09:50:49;98972.75;;;2.07;100.00
58243;BME280;50118;53.232;8.252;2023-03-14T09:53:39;98989.50;;;2.15;100.00
58243;BME280;50118;53.232;8.252;2023-03-14T09:56:12;99008.50;;;2.29;100.00
58243;BME280;50118;53.232;8.252;2023-03-14T09:58:41;99000.03;;;2.35;100.00
58243;BME280;50118;53.232;8.252;2023-03-14T10:01:11;99011.72;;;2.61;100.00
58243;BME280;50118;53.232;8.252;2023-03-14T10:03:40;99027.63;;;2.60;100.00
58243;BME280;50118;53.232;8.252;2023-03-14T10:06:14;99046.16;;;2.58;100.00
58243;BME280;50118;53.232;8.252;2023-03-14T10:08:41;99047.16;;;2.57;100.00
58243;BME280;50118;53.232;8.252;2023-03-14T10:11:15;99040.53;;;2.73;100.00
58243;BME280;50118;53.232;8.252;2023-03-14T10:16:31;99062.25;;;2.75;100.00
58243;BME280;50118;53.232;8.252;2023-03-14T10:19:05;99082.31;;;2.86;100.00
58243;BME280;50118;53.232;8.252;2023-03-14T10:21:37;99090.91;;;2.78;100.00
58243;BME280;50118;53.232;8.252;2023-03-14T10:24:22;99098.53;;;2.81;100.00
58243;BME280;50118;53.232;8.252;2023-03-14T10:26:58;99104.38;;;3.04;100.00
58243;BME280;50118;53.232;8.252;2023-03-14T10:29:26;99121.38;;;3.10;100.00
58243;BME280;50118;53.232;8.252;2023-03-14T10:34:23;99137.34;;;3.08;100.00
58243;BME280;50118;53.232;8.252;2023-03-14T10:36:54;99145.22;;;3.18;100.00
58243;BME280;50118;53.232;8.252;2023-03-14T10:42:27;99151.63;;;3.45;100.00
58243;BME280;50118;53.232;8.252;2023-03-14T10:45:36;99151.06;;;3.70;100.00
58243;BME280;50118;53.232;8.252;2023-03-14T10:50:48;99157.13;;;3.81;100.00
58243;BME280;50118;53.232;8.252;2023-03-14T10:53:17;99163.91;;;3.93;100.00
58243;BME280;50118;53.232;8.252;2023-03-14T10:55:44;99171.13;;;4.01;100.00
58243;BME280;50118;53.232;8.252;2023-03-14T10:58:21;99173.00;;;4.28;100.00
58243;BME280;50118;53.232;8.252;2023-03-14T11:00:51;99166.31;;;4.34;100.00
58243;BME280;50118;53.232;8.252;2023-03-14T11:03:19;99167.06;;;4.26;100.00
58243;BME280;50118;53.232;8.252;2023-03-14T11:05:53;99187.53;;;4.32;100.00
58243;BME280;50118;53.232;8.252;2023-03-14T11:08:36;99188.22;;;4.44;100.00
58243;BME280;50118;53.232;8.252;2023-03-14T11:11:14;99201.97;;;4.38;100.00
58243;BME280;50118;53.232;8.252;2023-03-14T11:33:16;99277.16;;;3.44;100.00
58243;BME280;50118;53.232;8.252;2023-03-14T11:35:49;99292.16;;;3.83;100.00
58243;BME280;50118;53.232;8.252;2023-03-14T11:38:48;99294.94;;;3.81;100.00
58243;BME280;50118;53.232;8.252;2023-03-14T11:41:18;99298.28;;;4.03;100.00
58243;BME280;50118;53.232;8.252;2023-03-14T11:43:47;99308.56;;;4.16;100.00
58243;BME280;50118;53.232;8.252;2023-03-14T11:46:21;99321.84;;;4.34;100.00
58243;BME280;50118;53.232;8.252;2023-03-14T11:49:10;99327.00;;;4.35;100.00
58243;BME280;50118;53.232;8.252;2023-03-14T11:51:39;99337.88;;;4.99;100.00
58243;BME280;50118;53.232;8.252;2023-03-14T11:55:04;99343.41;;;4.96;100.00
58243;BME280;50118;53.232;8.252;2023-03-14T11:57:10;99346.34;;;4.93;100.00
58243;BME280;50118;53.232;8.252;2023-03-14T12:10:19;99401.97;;;5.19;90.91
58243;BME280;50118;53.232;8.252;2023-03-14T12:12:45;99410.34;;;5.14;86.93
58243;BME280;50118;53.232;8.252;2023-03-14T12:15:19;99412.84;;;5.06;85.95
58243;BME280;50118;53.232;8.252;2023-03-14T12:17:45;99414.66;;;4.96;86.38
58243;BME280;50118;53.232;8.252;2023-03-14T12:22:49;99438.16;;;4.99;76.63
58243;BME280;50118;53.232;8.252;2023-03-14T12:25:21;99443.38;;;5.18;72.93
58243;BME280;50118;53.232;8.252;2023-03-14T12:30:31;99465.31;;;5.29;72.06
58243;BME280;50118;53.232;8.252;2023-03-14T12:35:42;99487.38;;;5.47;71.83
58243;BME280;50118;53.232;8.252;2023-03-14T12:43:29;99497.41;;;5.43;70.94
58243;BME280;50118;53.232;8.252;2023-03-14T12:46:18;99511.13;;;5.47;70.80
58243;BME280;50118;53.232;8.252;2023-03-14T12:48:56;99520.63;;;5.30;75.23
58243;BME280;50118;53.232;8.252;2023-03-14T12:54:09;99531.06;;;5.02;74.66
58243;BME280;50118;53.232;8.252;2023-03-14T12:59:38;99549.09;;;5.07;73.97
58243;BME280;50118;53.232;8.252;2023-03-14T13:02:29;99554.53;;;4.96;75.20
58243;BME280;50118;53.232;8.252;2023-03-14T13:05:03;99560.06;;;5.12;67.80
58243;BME280;50118;53.232;8.252;2023-03-14T13:15:24;99581.47;;;6.52;64.34
58243;BME280;50118;53.232;8.252;2023-03-14T13:17:52;99601.47;;;5.70;64.33
58243;BME280;50118;53.232;8.252;2023-03-14T13:20:46;99612.06;;;5.51;68.98
58243;BME280;50118;53.232;8.252;2023-03-14T13:23:35;99615.94;;;5.17;66.58
58243;BME280;50118;53.232;8.252;2023-03-14T13:26:02;99627.59;;;5.05;67.18
58243;BME280;50118;53.232;8.252;2023-03-14T13:28:29;99632.00;;;4.75;66.38
58243;BME280;50118;53.232;8.252;2023-03-14T13:31:02;99642.00;;;4.81;65.08
58243;BME280;50118;53.232;8.252;2023-03-14T13:33:28;99641.69;;;4.65;67.32
58243;BME280;50118;53.232;8.252;2023-03-14T13:36:04;99650.28;;;4.67;66.40
58243;BME280;50118;53.232;8.252;2023-03-14T13:38:35;99661.38;;;4.61;70.14
58243;BME280;50118;53.232;8.252;2023-03-14T13:41:05;99661.19;;;4.43;63.67
58243;BME280;50118;53.232;8.252;2023-03-14T13:43:40;99663.22;;;4.80;65.63
58243;BME280;50118;53.232;8.252;2023-03-14T13:46:15;99676.53;;;5.29;64.04
58243;BME280;50118;53.232;8.252;2023-03-14T13:48:47;99678.94;;;5.71;61.45
58243;BME280;50118;53.232;8.252;2023-03-14T13:51:16;99667.53;;;5.60;60.49
58243;BME280;50118;53.232;8.252;2023-03-14T13:53:53;99691.72;;;5.66;61.09
58243;BME280;50118;53.232;8.252;2023-03-14T13:56:30;99686.16;;;5.59;62.70
58243;BME280;50118;53.232;8.252;2023-03-14T13:58:56;99709.63;;;5.33;63.71
58243;BME280;50118;53.232;8.252;2023-03-14T14:01:28;99709.09;;;4.89;65.29
58243;BME280;50118;53.232;8.252;2023-03-14T14:03:57;99733.56;;;4.60;67.08
58243;BME280;50118;53.232;8.252;2023-03-14T14:09:00;99755.69;;;4.47;69.39
58243;BME280;50118;53.232;8.252;2023-03-14T14:11:31;99759.06;;;4.49;70.41
58243;BME280;50118;53.232;8.252;2023-03-14T14:13:58;99755.50;;;4.60;68.56
58243;BME280;50118;53.232;8.252;2023-03-14T14:16:25;99763.78;;;4.77;68.78
58243;BME280;50118;53.232;8.252;2023-03-14T14:18:54;99766.94;;;5.01;70.55
58243;BME280;50118;53.232;8.252;2023-03-14T14:21:20;99771.88;;;5.26;71.00
58243;BME280;50118;53.232;8.252;2023-03-14T14:23:46;99778.56;;;5.39;67.85
58243;BME280;50118;53.232;8.252;2023-03-14T14:26:17;99783.28;;;5.36;60.77